sensor_id;sensor_type;location;lat;lon;timestamp;P1;durP1;ratioP1;P2;durP2;ratioP2
60354;SDS011;46198;51.464;-0.066;2022-08-11T00:02:26;6.30;;;3.58;;
60354;SDS011;46198;51.464;-0.066;2022-08-11T00:05:00;8.10;;;3.50;;
60354;SDS011;46198;51.464;-0.066;2022-08-11T00:07:32;4.60;;;3.30;;
60354;SDS011;46198;51.464;-0.066;2022-08-11T00:10:02;9.07;;;3.75;;
60354;SDS011;46198;51.464;-0.066;2022-08-11T00:12:30;4.30;;;3.20;;
60354;SDS011;46198;51.464;-0.066;2022-08-11T00:15:00;5.28;;;3.38;;
60354;SDS011;46198;51.464;-0.066;2022-08-11T00:17:32;6.38;;;3.90;;
60354;SDS011;46198;51.464;-0.066;2022-08-11T00:20:04;7.85;;;3.33;;
60354;SDS011;46198;51.464;-0.066;2022-08-11T00:22:42;5.63;;;3.63;;
60354;SDS011;46198;51.464;-0.066;2022-08-11T00:25:15;6.40;;;3.55;;
60354;SDS011;46198;51.464;-0.066;2022-08-11T00:27:45;6.18;;;3.35;;
60354;SDS011;46198;51.464;-0.066;2022-08-11T00:30:14;9.07;;;3.72;;
60354;SDS011;46198;51.464;-0.066;2022-08-11T00:32:45;7.75;;;3.20;;
60354;SDS011;46198;51.464;-0.066;2022-08-11T00:35:25;4.97;;;3.53;;
60354;SDS011;46198;51.464;-0.066;2022-08-11T00:38:21;5.75;;;3.55;;
60354;SDS011;46198;51.464;-0.066;2022-08-11T00:40:52;5.63;;;3.63;;
60354;SDS011;46198;51.464;-0.066;2022-08-11T00:43:33;6.25;;;3.28;;
60354;SDS011;46198;51.464;-0.066;2022-08-11T00:46:15;6.90;;;3.78;;
60354;SDS011;46198;51.464;-0.066;2022-08-11T00:48:56;5.63;;;3.50;;
60354;SDS011;46198;51.464;-0.066;2022-08-11T00:51:43;5.32;;;3.45;;
60354;SDS011;46198;51.464;-0.066;2022-08-11T00:54:35;9.70;;;3.65;;
60354;SDS011;46198;51.464;-0.066;2022-08-11T00:57:32;5.40;;;3.85;;
60354;SDS011;46198;51.464;-0.066;2022-08-11T01:00:13;8.35;;;3.85;;
60354;SDS011;46198;51.464;-0.066;2022-08-11T01:05:59;6.03;;;4.07;;
60354;SDS011;46198;51.464;-0.066;2022-08-11T01:08:49;4.78;;;3.75;;
60354;SDS011;46198;51.464;-0.066;2022-08-11T01:15:11;7.30;;;4.32;;
60354;SDS011;46198;51.464;-0.066;2022-08-11T01:21:14;8.95;;;4.47;;
60354;SDS011;46198;51.464;-0.066;2022-08-11T01:24:35;7.85;;;4.00;;
60354;SDS011;46198;51.464;-0.066;2022-08-11T01:27:41;6.68;;;4.22;;
60354;SDS011;46198;51.464;-0.066;2022-08-11T01:30:42;7.72;;;4.35;;
60354;SDS011;46198;51.464;-0.066;2022-08-11T01:39:52;9.20;;;4.60;;
60354;SDS011;46198;51.464;-0.066;2022-08-11T01:46:41;8.23;;;4.30;;
60354;SDS011;46198;51.464;-0.066;2022-08-11T01:49:14;8.13;;;4.25;;
60354;SDS011;46198;51.464;-0.066;2022-08-11T01:52:13;6.15;;;4.70;;
60354;SDS011;46198;51.464;-0.066;2022-08-11T01:55:01;8.50;;;4.45;;
60354;SDS011;46198;51.464;-0.066;2022-08-11T01:57:41;7.50;;;5.90;;
60354;SDS011;46198;51.464;-0.066;2022-08-11T02:00:14;8.82;;;5.55;;
60354;SDS011;46198;51.464;-0.066;2022-08-11T02:02:47;9.13;;;5.15;;
60354;SDS011;46198;51.464;-0.066;2022-08-11T02:05:25;9.02;;;5.90;;
60354;SDS011;46198;51.464;-0.066;2022-08-11T02:08:04;7.65;;;5.18;;
60354;SDS011;46198;51.464;-0.066;2022-08-11T02:10:42;10.60;;;6.25;;
60354;SDS011;46198;51.464;-0.066;2022-08-11T02:13:36;7.90;;;5.20;;
60354;SDS011;46198;51.464;-0.066;2022-08-11T02:18:49;9.43;;;4.85;;
60354;SDS011;46198;51.464;-0.066;2022-08-11T02:21:41;9.75;;;5.28;;
60354;SDS011;46198;51.464;-0.066;2022-08-11T02:24:33;10.10;;;9.10;;
60354;SDS011;46198;51.464;-0.066;2022-08-11T02:27:12;27.20;;;24.42;;
60354;SDS011;46198;51.464;-0.066;2022-08-11T02:29:46;21.90;;;19.75;;
60354;SDS011;46198;51.464;-0.066;2022-08-11T02:32:22;16.52;;;13.50;;
60354;SDS011;46198;51.464;-0.066;2022-08-11T02:35:15;15.00;;;10.07;;
60354;SDS011;46198;51.464;-0.066;2022-08-11T02:37:49;9.10;;;7.25;;
60354;SDS011;46198;51.464;-0.066;2022-08-11T02:40:29;7.53;;;5.57;;
60354;SDS011;46198;51.464;-0.066;2022-08-11T02:43:07;8.30;;;5.00;;
60354;SDS011;46198;51.464;-0.066;2022-08-11T02:45:51;6.45;;;4.20;;
60354;SDS011;46198;51.464;-0.066;2022-08-11T02:48:35;8.52;;;5.43;;
60354;SDS011;46198;51.464;-0.066;2022-08-11T02:51:31;9.40;;;4.82;;
60354;SDS011;46198;51.464;-0.066;2022-08-11T02:54:07;7.70;;;4.70;;
60354;SDS011;46198;51.464;-0.066;2022-08-11T02:56:45;8.73;;;4.43;;
60354;SDS011;46198;51.464;-0.066;2022-08-11T02:59:22;9.07;;;5.10;;
60354;SDS011;46198;51.464;-0.066;2022-08-11T03:02:14;5.88;;;4.45;;
60354;SDS011;46198;51.464;-0.066;2022-08-11T03:07:30;6.25;;;4.40;;
60354;SDS011;46198;51.464;-0.066;2022-08-11T03:10:04;6.10;;;4.65;;
60354;SDS011;46198;51.464;-0.066;2022-08-11T03:12:43;9.15;;;4.65;;
60354;SDS011;46198;51.464;-0.066;2022-08-11T03:15:40;5.65;;;4.50;;
60354;SDS011;46198;51.464;-0.066;2022-08-11T03:18:27;7.57;;;4.32;;
60354;SDS011;46198;51.464;-0.066;2022-08-11T03:21:04;10.60;;;4.32;;
60354;SDS011;46198;51.464;-0.066;2022-08-11T03:23:38;9.07;;;4.68;;
60354;SDS011;46198;51.464;-0.066;2022-08-11T03:26:21;6.75;;;4.60;;
60354;SDS011;46198;51.464;-0.066;2022-08-11T03:28:58;7.88;;;4.57;;
60354;SDS011;46198;51.464;-0.066;2022-08-11T03:31:33;7.53;;;4.90;;
60354;SDS011;46198;51.464;-0.066;2022-08-11T03:34:05;5.28;;;4.30;;
60354;SDS011;46198;51.464;-0.066;2022-08-11T03:36:58;9.50;;;5.28;;
60354;SDS011;46198;51.464;-0.066;2022-08-11T03:40:03;6.60;;;4.80;;
60354;SDS011;46198;51.464;-0.066;2022-08-11T03:43:06;7.78;;;4.85;;
60354;SDS011;46198;51.464;-0.066;2022-08-11T03:45:48;5.90;;;4.70;;
60354;SDS011;46198;51.464;-0.066;2022-08-11T03:48:28;6.47;;;4.72;;
60354;SDS011;46198;51.464;-0.066;2022-08-11T03:51:11;8.38;;;4.82;;
60354;SDS011;46198;51.464;-0.066;2022-08-11T03:53:53;7.57;;;4.63;;
60354;SDS011;46198;51.464;-0.066;2022-08-11T03:56:41;8.90;;;4.38;;
60354;SDS011;46198;51.464;-0.066;2022-08-11T04:09:09;5.82;;;4.20;;
60354;SDS011;46198;51.464;-0.066;2022-08-11T04:12:27;7.13;;;4.47;;
60354;SDS011;46198;51.464;-0.066;2022-08-11T04:15:37;8.05;;;4.70;;
60354;SDS011;46198;51.464;-0.066;2022-08-11T04:25:00;6.30;;;4.13;;
60354;SDS011;46198;51.464;-0.066;2022-08-11T04:30:57;7.95;;;4.30;;
60354;SDS011;46198;51.464;-0.066;2022-08-11T04:33:40;6.28;;;4.32;;
60354;SDS011;46198;51.464;-0.066;2022-08-11T04:36:33;7.28;;;4.60;;
60354;SDS011;46198;51.464;-0.066;2022-08-11T04:39:58;7.05;;;4.40;;
60354;SDS011;46198;51.464;-0.066;2022-08-11T04:45:53;5.82;;;4.35;;
60354;SDS011;46198;51.464;-0.066;2022-08-11T04:52:15;6.45;;;4.18;;
60354;SDS011;46198;51.464;-0.066;2022-08-11T04:55:56;6.90;;;4.63;;
60354;SDS011;46198;51.464;-0.066;2022-08-11T04:58:54;4.93;;;4.43;;
60354;SDS011;46198;51.464;-0.066;2022-08-11T05:05:10;8.32;;;4.60;;
60354;SDS011;46198;51.464;-0.066;2022-08-11T05:08:46;5.82;;;4.60;;
60354;SDS011;46198;51.464;-0.066;2022-08-11T05:11:49;6.78;;;4.72;;
60354;SDS011;46198;51.464;-0.066;2022-08-11T05:14:29;12.50;;;5.30;;
60354;SDS011;46198;51.464;-0.066;2022-08-11T05:17:23;8.68;;;4.68;;
60354;SDS011;46198;51.464;-0.066;2022-08-11T05:20:18;12.13;;;5.60;;
60354;SDS011;46198;51.464;-0.066;2022-08-11T05:23:05;10.35;;;5.65;;
60354;SDS011;46198;51.464;-0.066;2022-08-11T05:25:54;8.63;;;5.10;;
60354;SDS011;46198;51.464;-0.066;2022-08-11T05:29:04;10.55;;;5.35;;
60354;SDS011;46198;51.464;-0.066;2022-08-11T05:32:08;8.10;;;5.43;;
60354;SDS011;46198;51.464;-0.066;2022-08-11T05:34:57;7.80;;;5.25;;
60354;SDS011;46198;51.464;-0.066;2022-08-11T05:37:33;9.43;;;5.82;;
60354;SDS011;46198;51.464;-0.066;2022-08-11T05:40:08;11.18;;;6.32;;
60354;SDS011;46198;51.464;-0.066;2022-08-11T05:42:59;10.43;;;6.65;;
60354;SDS011;46198;51.464;-0.066;2022-08-11T05:45:56;11.35;;;6.50;;
60354;SDS011;46198;51.464;-0.066;2022-08-11T05:48:44;9.63;;;7.25;;
60354;SDS011;46198;51.464;-0.066;2022-08-11T05:51:32;9.43;;;7.63;;
60354;SDS011;46198;51.464;-0.066;2022-08-11T05:54:22;11.45;;;7.82;;
60354;SDS011;46198;51.464;-0.066;2022-08-11T05:57:17;12.50;;;7.80;;
60354;SDS011;46198;51.464;-0.066;2022-08-11T06:00:07;10.13;;;8.63;;
60354;SDS011;46198;51.464;-0.066;2022-08-11T06:02:42;9.23;;;8.23;;
60354;SDS011;46198;51.464;-0.066;2022-08-11T06:05:11;14.20;;;8.65;;
60354;SDS011;46198;51.464;-0.066;2022-08-11T06:07:39;14.10;;;9.48;;
60354;SDS011;46198;51.464;-0.066;2022-08-11T06:10:24;13.32;;;9.75;;
60354;SDS011;46198;51.464;-0.066;2022-08-11T06:12:54;19.45;;;9.30;;
60354;SDS011;46198;51.464;-0.066;2022-08-11T06:15:27;17.15;;;11.00;;
60354;SDS011;46198;51.464;-0.066;2022-08-11T06:17:58;15.15;;;12.68;;
60354;SDS011;46198;51.464;-0.066;2022-08-11T06:20:28;22.42;;;13.18;;
60354;SDS011;46198;51.464;-0.066;2022-08-11T06:23:03;18.40;;;12.90;;
60354;SDS011;46198;51.464;-0.066;2022-08-11T06:25:34;16.42;;;12.63;;
60354;SDS011;46198;51.464;-0.066;2022-08-11T06:28:04;15.85;;;13.05;;
60354;SDS011;46198;51.464;-0.066;2022-08-11T06:30:35;21.00;;;13.57;;
60354;SDS011;46198;51.464;-0.066;2022-08-11T06:33:10;15.60;;;13.18;;
60354;SDS011;46198;51.464;-0.066;2022-08-11T06:35:45;15.30;;;12.50;;
60354;SDS011;46198;51.464;-0.066;2022-08-11T06:38:25;17.60;;;13.73;;
60354;SDS011;46198;51.464;-0.066;2022-08-11T06:41:06;15.70;;;13.80;;
60354;SDS011;46198;51.464;-0.066;2022-08-11T06:44:10;15.20;;;13.73;;
60354;SDS011;46198;51.464;-0.066;2022-08-11T06:46:44;19.30;;;14.02;;
60354;SDS011;46198;51.464;-0.066;2022-08-11T06:52:03;17.88;;;13.63;;
60354;SDS011;46198;51.464;-0.066;2022-08-11T06:54:52;21.05;;;15.52;;
60354;SDS011;46198;51.464;-0.066;2022-08-11T06:57:31;21.38;;;15.55;;
60354;SDS011;46198;51.464;-0.066;2022-08-11T07:00:19;22.98;;;14.27;;
60354;SDS011;46198;51.464;-0.066;2022-08-11T07:02:59;17.85;;;15.55;;
60354;SDS011;46198;51.464;-0.066;2022-08-11T07:05:39;20.13;;;15.48;;
60354;SDS011;46198;51.464;-0.066;2022-08-11T07:08:33;21.70;;;15.20;;
60354;SDS011;46198;51.464;-0.066;2022-08-11T07:11:47;21.55;;;14.45;;
60354;SDS011;46198;51.464;-0.066;2022-08-11T07:14:46;22.30;;;13.70;;
60354;SDS011;46198;51.464;-0.066;2022-08-11T07:17:36;23.52;;;14.65;;
60354;SDS011;46198;51.464;-0.066;2022-08-11T07:20:09;19.17;;;14.85;;
60354;SDS011;46198;51.464;-0.066;2022-08-11T07:23:00;23.92;;;15.35;;
60354;SDS011;46198;51.464;-0.066;2022-08-11T07:26:02;21.05;;;15.27;;
60354;SDS011;46198;51.464;-0.066;2022-08-11T07:28:49;22.83;;;15.10;;
60354;SDS011;46198;51.464;-0.066;2022-08-11T07:31:27;24.55;;;14.07;;
60354;SDS011;46198;51.464;-0.066;2022-08-11T07:34:02;26.00;;;14.35;;
60354;SDS011;46198;51.464;-0.066;2022-08-11T07:36:45;24.25;;;14.88;;
60354;SDS011;46198;51.464;-0.066;2022-08-11T07:39:19;20.05;;;14.57;;
60354;SDS011;46198;51.464;-0.066;2022-08-11T07:41:50;21.75;;;14.32;;
60354;SDS011;46198;51.464;-0.066;2022-08-11T07:44:23;22.73;;;14.25;;
60354;SDS011;46198;51.464;-0.066;2022-08-11T07:47:00;20.58;;;14.43;;
60354;SDS011;46198;51.464;-0.066;2022-08-11T07:49:48;24.48;;;14.75;;
60354;SDS011;46198;51.464;-0.066;2022-08-11T07:52:37;21.05;;;14.63;;
60354;SDS011;46198;51.464;-0.066;2022-08-11T07:55:13;19.42;;;14.98;;
60354;SDS011;46198;51.464;-0.066;2022-08-11T07:57:45;20.75;;;14.98;;
60354;SDS011;46198;51.464;-0.066;2022-08-11T08:00:46;22.63;;;15.05;;
60354;SDS011;46198;51.464;-0.066;2022-08-11T08:03:41;24.25;;;15.02;;
60354;SDS011;46198;51.464;-0.066;2022-08-11T08:06:28;21.02;;;14.10;;
60354;SDS011;46198;51.464;-0.066;2022-08-11T08:09:18;24.17;;;14.55;;
60354;SDS011;46198;51.464;-0.066;2022-08-11T08:12:07;17.33;;;13.75;;
60354;SDS011;46198;51.464;-0.066;2022-08-11T08:14:54;21.52;;;14.20;;
60354;SDS011;46198;51.464;-0.066;2022-08-11T08:17:41;25.05;;;14.45;;
60354;SDS011;46198;51.464;-0.066;2022-08-11T08:20:44;27.27;;;14.65;;
60354;SDS011;46198;51.464;-0.066;2022-08-11T08:23:15;22.02;;;15.25;;
60354;SDS011;46198;51.464;-0.066;2022-08-11T08:25:59;22.95;;;15.25;;
60354;SDS011;46198;51.464;-0.066;2022-08-11T08:28:31;26.00;;;15.15;;
60354;SDS011;46198;51.464;-0.066;2022-08-11T08:31:00;24.48;;;13.63;;
60354;SDS011;46198;51.464;-0.066;2022-08-11T08:33:29;20.95;;;12.50;;
60354;SDS011;46198;51.464;-0.066;2022-08-11T08:35:59;19.92;;;12.45;;
60354;SDS011;46198;51.464;-0.066;2022-08-11T08:38:42;18.65;;;13.15;;
60354;SDS011;46198;51.464;-0.066;2022-08-11T08:41:16;19.05;;;12.60;;
60354;SDS011;46198;51.464;-0.066;2022-08-11T08:43:51;18.45;;;13.90;;
60354;SDS011;46198;51.464;-0.066;2022-08-11T08:46:42;17.83;;;14.45;;
60354;SDS011;46198;51.464;-0.066;2022-08-11T08:49:13;16.42;;;11.88;;
60354;SDS011;46198;51.464;-0.066;2022-08-11T08:51:44;20.65;;;13.20;;
60354;SDS011;46198;51.464;-0.066;2022-08-11T08:54:40;20.48;;;12.43;;
60354;SDS011;46198;51.464;-0.066;2022-08-11T08:57:11;16.90;;;12.98;;
60354;SDS011;46198;51.464;-0.066;2022-08-11T08:59:43;17.73;;;12.25;;
60354;SDS011;46198;51.464;-0.066;2022-08-11T09:02:17;16.13;;;13.32;;
60354;SDS011;46198;51.464;-0.066;2022-08-11T09:04:59;16.05;;;11.23;;
60354;SDS011;46198;51.464;-0.066;2022-08-11T09:07:29;18.00;;;10.98;;
60354;SDS011;46198;51.464;-0.066;2022-08-11T09:10:06;17.30;;;10.52;;
60354;SDS011;46198;51.464;-0.066;2022-08-11T09:12:35;17.33;;;11.10;;
60354;SDS011;46198;51.464;-0.066;2022-08-11T09:15:08;16.15;;;11.35;;
60354;SDS011;46198;51.464;-0.066;2022-08-11T09:17:39;14.75;;;11.38;;
60354;SDS011;46198;51.464;-0.066;2022-08-11T09:20:11;16.20;;;12.18;;
60354;SDS011;46198;51.464;-0.066;2022-08-11T09:22:41;16.13;;;10.38;;
60354;SDS011;46198;51.464;-0.066;2022-08-11T09:25:48;16.30;;;10.10;;
60354;SDS011;46198;51.464;-0.066;2022-08-11T09:28:36;11.30;;;10.13;;
60354;SDS011;46198;51.464;-0.066;2022-08-11T09:31:06;16.20;;;9.98;;
60354;SDS011;46198;51.464;-0.066;2022-08-11T09:33:36;10.48;;;9.38;;
60354;SDS011;46198;51.464;-0.066;2022-08-11T09:36:08;9.75;;;8.38;;
60354;SDS011;46198;51.464;-0.066;2022-08-11T09:38:56;9.52;;;8.48;;
60354;SDS011;46198;51.464;-0.066;2022-08-11T09:41:44;10.95;;;8.00;;
60354;SDS011;46198;51.464;-0.066;2022-08-11T09:44:28;11.93;;;7.63;;
60354;SDS011;46198;51.464;-0.066;2022-08-11T09:47:21;12.20;;;7.65;;
60354;SDS011;46198;51.464;-0.066;2022-08-11T09:49:51;15.68;;;8.98;;
60354;SDS011;46198;51.464;-0.066;2022-08-11T09:52:26;18.77;;;8.73;;
60354;SDS011;46198;51.464;-0.066;2022-08-11T09:54:57;8.30;;;7.10;;
60354;SDS011;46198;51.464;-0.066;2022-08-11T09:57:26;11.38;;;8.38;;
60354;SDS011;46198;51.464;-0.066;2022-08-11T10:00:13;11.82;;;6.90;;
60354;SDS011;46198;51.464;-0.066;2022-08-11T10:02:44;10.07;;;6.63;;
60354;SDS011;46198;51.464;-0.066;2022-08-11T10:05:15;14.15;;;6.78;;
60354;SDS011;46198;51.464;-0.066;2022-08-11T10:08:03;10.95;;;6.50;;
60354;SDS011;46198;51.464;-0.066;2022-08-11T10:10:33;9.98;;;7.57;;
60354;SDS011;46198;51.464;-0.066;2022-08-11T10:13:05;8.50;;;6.28;;
60354;SDS011;46198;51.464;-0.066;2022-08-11T10:15:56;11.63;;;6.95;;
60354;SDS011;46198;51.464;-0.066;2022-08-11T10:18:45;10.95;;;7.35;;
60354;SDS011;46198;51.464;-0.066;2022-08-11T10:21:23;8.30;;;6.30;;
60354;SDS011;46198;51.464;-0.066;2022-08-11T10:23:57;9.02;;;6.05;;
60354;SDS011;46198;51.464;-0.066;2022-08-11T10:26:45;9.07;;;6.43;;
60354;SDS011;46198;51.464;-0.066;2022-08-11T10:29:22;13.02;;;5.60;;
60354;SDS011;46198;51.464;-0.066;2022-08-11T10:32:17;10.35;;;5.03;;
60354;SDS011;46198;51.464;-0.066;2022-08-11T10:35:25;8.90;;;3.95;;
60354;SDS011;46198;51.464;-0.066;2022-08-11T10:37:54;5.22;;;4.47;;
60354;SDS011;46198;51.464;-0.066;2022-08-11T10:40:34;9.15;;;4.70;;
60354;SDS011;46198;51.464;-0.066;2022-08-11T10:43:05;11.68;;;5.60;;
60354;SDS011;46198;51.464;-0.066;2022-08-11T10:46:01;6.72;;;5.05;;
60354;SDS011;46198;51.464;-0.066;2022-08-11T10:48:56;11.43;;;5.05;;
60354;SDS011;46198;51.464;-0.066;2022-08-11T10:51:26;8.37;;;4.40;;
60354;SDS011;46198;51.464;-0.066;2022-08-11T10:54:17;10.38;;;4.20;;
60354;SDS011;46198;51.464;-0.066;2022-08-11T10:57:05;11.90;;;4.30;;
60354;SDS011;46198;51.464;-0.066;2022-08-11T10:59:53;5.40;;;3.65;;
60354;SDS011;46198;51.464;-0.066;2022-08-11T11:02:23;6.68;;;3.60;;
60354;SDS011;46198;51.464;-0.066;2022-08-11T11:04:57;6.68;;;3.50;;
60354;SDS011;46198;51.464;-0.066;2022-08-11T11:07:37;4.95;;;2.97;;
60354;SDS011;46198;51.464;-0.066;2022-08-11T11:10:10;5.47;;;3.13;;
60354;SDS011;46198;51.464;-0.066;2022-08-11T11:12:39;5.65;;;3.28;;
60354;SDS011;46198;51.464;-0.066;2022-08-11T11:15:28;7.63;;;3.15;;
60354;SDS011;46198;51.464;-0.066;2022-08-11T11:18:18;7.32;;;3.28;;
60354;SDS011;46198;51.464;-0.066;2022-08-11T11:20:50;7.10;;;3.20;;
60354;SDS011;46198;51.464;-0.066;2022-08-11T11:23:26;6.60;;;3.10;;
60354;SDS011;46198;51.464;-0.066;2022-08-11T11:29:02;5.28;;;3.20;;
60354;SDS011;46198;51.464;-0.066;2022-08-11T11:31:45;5.88;;;3.05;;
60354;SDS011;46198;51.464;-0.066;2022-08-11T11:34:30;8.57;;;3.40;;
60354;SDS011;46198;51.464;-0.066;2022-08-11T11:37:18;5.97;;;3.15;;
60354;SDS011;46198;51.464;-0.066;2022-08-11T11:39:48;7.03;;;2.80;;
60354;SDS011;46198;51.464;-0.066;2022-08-11T11:42:17;5.70;;;2.75;;
60354;SDS011;46198;51.464;-0.066;2022-08-11T11:44:47;7.70;;;3.10;;
60354;SDS011;46198;51.464;-0.066;2022-08-11T11:47:21;3.92;;;2.78;;
60354;SDS011;46198;51.464;-0.066;2022-08-11T11:49:50;3.55;;;2.80;;
60354;SDS011;46198;51.464;-0.066;2022-08-11T11:52:19;7.57;;;3.17;;
60354;SDS011;46198;51.464;-0.066;2022-08-11T11:54:50;6.30;;;4.20;;
60354;SDS011;46198;51.464;-0.066;2022-08-11T11:57:22;5.00;;;2.70;;
60354;SDS011;46198;51.464;-0.066;2022-08-11T12:00:28;10.93;;;8.00;;
60354;SDS011;46198;51.464;-0.066;2022-08-11T12:03:14;6.13;;;2.60;;
60354;SDS011;46198;51.464;-0.066;2022-08-11T12:05:44;3.70;;;2.63;;
60354;SDS011;46198;51.464;-0.066;2022-08-11T12:08:13;5.45;;;2.55;;
60354;SDS011;46198;51.464;-0.066;2022-08-11T12:10:44;5.32;;;2.50;;
60354;SDS011;46198;51.464;-0.066;2022-08-11T12:13:17;3.25;;;2.55;;
60354;SDS011;46198;51.464;-0.066;2022-08-11T12:16:04;6.80;;;2.50;;
60354;SDS011;46198;51.464;-0.066;2022-08-11T12:18:54;4.88;;;2.83;;
60354;SDS011;46198;51.464;-0.066;2022-08-11T12:21:25;4.45;;;2.35;;
60354;SDS011;46198;51.464;-0.066;2022-08-11T12:23:55;4.07;;;2.50;;
60354;SDS011;46198;51.464;-0.066;2022-08-11T12:27:00;6.88;;;2.90;;
60354;SDS011;46198;51.464;-0.066;2022-08-11T12:29:52;3.33;;;2.60;;
60354;SDS011;46198;51.464;-0.066;2022-08-11T12:32:23;5.28;;;2.33;;
60354;SDS011;46198;51.464;-0.066;2022-08-11T12:34:53;2.92;;;2.33;;
60354;SDS011;46198;51.464;-0.066;2022-08-11T12:37:25;2.97;;;2.30;;
60354;SDS011;46198;51.464;-0.066;2022-08-11T12:39:58;4.32;;;2.35;;
60354;SDS011;46198;51.464;-0.066;2022-08-11T12:43:09;5.05;;;2.35;;
60354;SDS011;46198;51.464;-0.066;2022-08-11T12:46:08;4.38;;;2.90;;
60354;SDS011;46198;51.464;-0.066;2022-08-11T12:48:42;5.30;;;2.83;;
60354;SDS011;46198;51.464;-0.066;2022-08-11T12:51:31;3.80;;;2.67;;
60354;SDS011;46198;51.464;-0.066;2022-08-11T12:54:48;5.35;;;2.45;;
60354;SDS011;46198;51.464;-0.066;2022-08-11T12:57:25;7.05;;;2.95;;
60354;SDS011;46198;51.464;-0.066;2022-08-11T13:00:12;4.80;;;2.58;;
60354;SDS011;46198;51.464;-0.066;2022-08-11T13:02:59;4.50;;;3.17;;
60354;SDS011;46198;51.464;-0.066;2022-08-11T13:05:47;4.55;;;2.85;;
60354;SDS011;46198;51.464;-0.066;2022-08-11T13:08:21;4.35;;;3.22;;
60354;SDS011;46198;51.464;-0.066;2022-08-11T13:10:51;5.97;;;3.08;;
60354;SDS011;46198;51.464;-0.066;2022-08-11T13:13:39;8.05;;;3.22;;
60354;SDS011;46198;51.464;-0.066;2022-08-11T13:16:25;5.97;;;2.50;;
60354;SDS011;46198;51.464;-0.066;2022-08-11T13:18:56;5.60;;;2.58;;
60354;SDS011;46198;51.464;-0.066;2022-08-11T13:21:27;3.65;;;2.55;;
60354;SDS011;46198;51.464;-0.066;2022-08-11T13:23:56;3.75;;;2.60;;
60354;SDS011;46198;51.464;-0.066;2022-08-11T13:26:34;3.38;;;2.90;;
60354;SDS011;46198;51.464;-0.066;2022-08-11T13:29:40;3.90;;;2.70;;
60354;SDS011;46198;51.464;-0.066;2022-08-11T13:32:16;4.38;;;2.42;;
60354;SDS011;46198;51.464;-0.066;2022-08-11T13:34:46;5.65;;;2.50;;
60354;SDS011;46198;51.464;-0.066;2022-08-11T13:37:15;6.47;;;2.92;;
60354;SDS011;46198;51.464;-0.066;2022-08-11T13:40:08;4.88;;;2.75;;
60354;SDS011;46198;51.464;-0.066;2022-08-11T13:42:37;7.38;;;3.30;;
60354;SDS011;46198;51.464;-0.066;2022-08-11T13:45:07;4.07;;;3.63;;
60354;SDS011;46198;51.464;-0.066;2022-08-11T13:47:41;7.43;;;4.22;;
60354;SDS011;46198;51.464;-0.066;2022-08-11T13:50:42;10.50;;;4.78;;
60354;SDS011;46198;51.464;-0.066;2022-08-11T13:53:29;5.13;;;4.28;;
60354;SDS011;46198;51.464;-0.066;2022-08-11T13:55:58;5.90;;;3.67;;
60354;SDS011;46198;51.464;-0.066;2022-08-11T13:58:27;7.63;;;3.55;;
60354;SDS011;46198;51.464;-0.066;2022-08-11T14:01:06;5.57;;;2.85;;
60354;SDS011;46198;51.464;-0.066;2022-08-11T14:04:02;5.80;;;2.65;;
60354;SDS011;46198;51.464;-0.066;2022-08-11T14:06:55;6.22;;;2.50;;
60354;SDS011;46198;51.464;-0.066;2022-08-11T14:09:26;5.78;;;2.20;;
60354;SDS011;46198;51.464;-0.066;2022-08-11T14:11:57;4.47;;;2.30;;
60354;SDS011;46198;51.464;-0.066;2022-08-11T14:14:51;5.72;;;2.60;;
60354;SDS011;46198;51.464;-0.066;2022-08-11T14:17:33;7.43;;;2.83;;
60354;SDS011;46198;51.464;-0.066;2022-08-11T14:20:17;3.42;;;2.38;;
60354;SDS011;46198;51.464;-0.066;2022-08-11T14:23:07;5.28;;;2.60;;
60354;SDS011;46198;51.464;-0.066;2022-08-11T14:25:39;6.40;;;2.88;;
60354;SDS011;46198;51.464;-0.066;2022-08-11T14:31:09;6.10;;;2.90;;
60354;SDS011;46198;51.464;-0.066;2022-08-11T14:33:38;7.80;;;2.60;;
60354;SDS011;46198;51.464;-0.066;2022-08-11T14:36:28;2.83;;;2.30;;
60354;SDS011;46198;51.464;-0.066;2022-08-11T14:39:00;6.68;;;2.65;;
60354;SDS011;46198;51.464;-0.066;2022-08-11T14:41:31;4.47;;;2.95;;
60354;SDS011;46198;51.464;-0.066;2022-08-11T14:44:38;4.50;;;4.10;;
60354;SDS011;46198;51.464;-0.066;2022-08-11T14:47:26;7.35;;;4.00;;
60354;SDS011;46198;51.464;-0.066;2022-08-11T14:50:00;4.50;;;4.10;;
60354;SDS011;46198;51.464;-0.066;2022-08-11T14:52:41;4.47;;;4.03;;
60354;SDS011;46198;51.464;-0.066;2022-08-11T14:55:15;7.25;;;4.20;;
60354;SDS011;46198;51.464;-0.066;2022-08-11T14:58:02;4.70;;;3.22;;
60354;SDS011;46198;51.464;-0.066;2022-08-11T15:00:32;5.57;;;3.17;;
60354;SDS011;46198;51.464;-0.066;2022-08-11T15:03:02;7.03;;;3.50;;
60354;SDS011;46198;51.464;-0.066;2022-08-11T15:05:37;6.90;;;3.03;;
60354;SDS011;46198;51.464;-0.066;2022-08-11T15:08:24;3.70;;;2.85;;
60354;SDS011;46198;51.464;-0.066;2022-08-11T15:11:13;5.20;;;3.30;;
60354;SDS011;46198;51.464;-0.066;2022-08-11T15:14:01;5.18;;;2.83;;
60354;SDS011;46198;51.464;-0.066;2022-08-11T15:16:32;4.35;;;2.80;;
60354;SDS011;46198;51.464;-0.066;2022-08-11T15:19:20;4.53;;;2.65;;
60354;SDS011;46198;51.464;-0.066;2022-08-11T15:21:48;3.83;;;2.85;;
60354;SDS011;46198;51.464;-0.066;2022-08-11T15:24:35;3.30;;;3.00;;
60354;SDS011;46198;51.464;-0.066;2022-08-11T15:27:04;5.88;;;2.83;;
60354;SDS011;46198;51.464;-0.066;2022-08-11T15:29:55;6.07;;;3.15;;
60354;SDS011;46198;51.464;-0.066;2022-08-11T15:32:59;2.97;;;2.67;;
60354;SDS011;46198;51.464;-0.066;2022-08-11T15:35:49;6.10;;;2.70;;
60354;SDS011;46198;51.464;-0.066;2022-08-11T15:38:36;6.30;;;2.75;;
60354;SDS011;46198;51.464;-0.066;2022-08-11T15:41:09;4.50;;;2.63;;
60354;SDS011;46198;51.464;-0.066;2022-08-11T15:44:02;4.38;;;2.85;;
60354;SDS011;46198;51.464;-0.066;2022-08-11T15:47:10;4.37;;;2.70;;
60354;SDS011;46198;51.464;-0.066;2022-08-11T15:49:40;4.65;;;2.50;;
60354;SDS011;46198;51.464;-0.066;2022-08-11T15:52:34;3.30;;;2.53;;
60354;SDS011;46198;51.464;-0.066;2022-08-11T15:55:15;8.10;;;2.70;;
60354;SDS011;46198;51.464;-0.066;2022-08-11T15:57:46;4.15;;;2.70;;
60354;SDS011;46198;51.464;-0.066;2022-08-11T16:00:35;6.20;;;2.50;;
60354;SDS011;46198;51.464;-0.066;2022-08-11T16:03:37;6.35;;;2.47;;
60354;SDS011;46198;51.464;-0.066;2022-08-11T16:06:38;4.17;;;2.80;;
60354;SDS011;46198;51.464;-0.066;2022-08-11T16:09:17;3.05;;;2.40;;
60354;SDS011;46198;51.464;-0.066;2022-08-11T16:11:49;5.35;;;2.50;;
60354;SDS011;46198;51.464;-0.066;2022-08-11T16:14:20;3.17;;;2.38;;
60354;SDS011;46198;51.464;-0.066;2022-08-11T16:17:09;3.08;;;2.58;;
60354;SDS011;46198;51.464;-0.066;2022-08-11T16:22:08;4.78;;;2.50;;
60354;SDS011;46198;51.464;-0.066;2022-08-11T16:24:40;4.25;;;2.58;;
60354;SDS011;46198;51.464;-0.066;2022-08-11T16:27:32;3.97;;;2.50;;
60354;SDS011;46198;51.464;-0.066;2022-08-11T16:30:06;6.00;;;2.67;;
60354;SDS011;46198;51.464;-0.066;2022-08-11T16:32:37;3.20;;;2.20;;
60354;SDS011;46198;51.464;-0.066;2022-08-11T16:35:08;5.25;;;2.40;;
60354;SDS011;46198;51.464;-0.066;2022-08-11T16:37:56;4.55;;;2.67;;
60354;SDS011;46198;51.464;-0.066;2022-08-11T16:40:43;4.43;;;2.70;;
60354;SDS011;46198;51.464;-0.066;2022-08-11T16:46:00;5.05;;;2.80;;
60354;SDS011;46198;51.464;-0.066;2022-08-11T16:48:48;3.03;;;2.50;;
60354;SDS011;46198;51.464;-0.066;2022-08-11T16:51:19;4.95;;;2.63;;
60354;SDS011;46198;51.464;-0.066;2022-08-11T16:53:48;6.10;;;2.60;;
60354;SDS011;46198;51.464;-0.066;2022-08-11T16:56:33;5.03;;;2.47;;
60354;SDS011;46198;51.464;-0.066;2022-08-11T16:59:06;5.68;;;3.10;;
60354;SDS011;46198;51.464;-0.066;2022-08-11T17:01:49;7.35;;;3.00;;
60354;SDS011;46198;51.464;-0.066;2022-08-11T17:04:20;8.82;;;2.70;;
60354;SDS011;46198;51.464;-0.066;2022-08-11T17:07:13;13.52;;;3.10;;